Pernille — 5BNZ2 — position and weather

sailwx.info

Track history (hours):
 
Tides and Currents Weather Stations Pressure Air Temp Water Temp Dewpoint Dewpoint Depression Visibility Wind Speed Wind Dir Waves Ship Positions

Pernille

Last reported at 2016-Feb-08 05:31 UTC. Time now 2016-Feb-08 21:14 UTC.
Position N 60°01' E 026°34'.

Length 82 m; draft 5.3 m.

Type: Cargo ship. MMSI: 212662000.

Date/timePositionNaut miles runAvg speedWind from/ knotsBaromVisibWave heightAir tempDewpointWater temp
2016-Feb-08 05:31N 60°01' E 026°34'3310.0
2016-Feb-08 02:12N 60°10' E 027°38'1610.0
2016-Feb-08 00:34N 60°09' E 028°11'1110.6
2016-Feb-07 23:33N 60°04' E 028°30'48 9.6
2016-Feb-07 18:33N 59°55' E 030°04'5 5.0
2016-Feb-07 17:34N 59°54' E 030°13'0 0.1
2016-Feb-07 16:33N 59°54' E 030°13'0 0.0
2016-Feb-07 15:33N 59°54' E 030°13'0 0.0
2016-Feb-07 14:33N 59°54' E 030°13'0 0.0
2016-Feb-07 13:33N 59°54' E 030°13'0 0.0
2016-Feb-07 12:33N 59°54' E 030°13'0 0.0
2016-Feb-07 11:33N 59°54' E 030°13'0 0.0
2016-Feb-07 10:33N 59°54' E 030°13'0 0.0
2016-Feb-07 09:33N 59°54' E 030°13'0 0.0
2016-Feb-07 08:33N 59°54' E 030°13'0 0.0
2016-Feb-07 07:33N 59°54' E 030°13'0 0.0
2016-Feb-07 06:33N 59°54' E 030°13'0 0.0
2016-Feb-07 05:33N 59°54' E 030°13'0 0.0
2016-Feb-07 04:33N 59°54' E 030°13'0 0.0
2016-Feb-07 03:33N 59°54' E 030°13'0 0.0
2016-Feb-07 02:33N 59°54' E 030°13'0 0.0
2016-Feb-07 01:33N 59°54' E 030°13'0 0.0
2016-Feb-07 00:33N 59°54' E 030°13'0 0.0
2016-Feb-06 23:33N 59°54' E 030°13'0 0.0
2016-Feb-06 22:33N 59°54' E 030°13'0 0.0
2016-Feb-06 21:33N 59°54' E 030°13'0 0.0
2016-Feb-06 20:33N 59°54' E 030°13'0 0.0
2016-Feb-06 19:33N 59°54' E 030°13'0 0.0
2016-Feb-06 18:33N 59°54' E 030°13'0 0.0
2016-Feb-06 17:33N 59°54' E 030°13'0 0.0
2016-Feb-06 16:33N 59°54' E 030°13'0 0.0
2016-Feb-06 15:33N 59°54' E 030°13'0 0.0
2016-Feb-06 14:33N 59°54' E 030°13'0 0.0
2016-Feb-06 13:33N 59°54' E 030°13'0 0.0
2016-Feb-06 12:33N 59°54' E 030°13'0 0.0
2016-Feb-06 11:33N 59°54' E 030°13'0 0.0
2016-Feb-06 10:33N 59°54' E 030°13'0 0.0
2016-Feb-06 09:33N 59°54' E 030°13'0 0.0
2016-Feb-06 08:33N 59°54' E 030°13'0 0.0
2016-Feb-06 07:33N 59°54' E 030°13'0 0.0
2016-Feb-06 06:33N 59°54' E 030°13'0 0.0
2016-Feb-06 05:33N 59°54' E 030°13'0 0.0
2016-Feb-06 04:33N 59°54' E 030°13'0 0.0
2016-Feb-06 03:33N 59°54' E 030°13'0 0.0
2016-Feb-06 02:33N 59°54' E 030°13'0 0.0
2016-Feb-06 01:33N 59°54' E 030°13'0 0.0
2016-Feb-06 00:33N 59°54' E 030°13'0 0.0
2016-Feb-05 23:33N 59°54' E 030°13'0 0.0
2016-Feb-05 22:33N 59°54' E 030°13'0 0.0
2016-Feb-05 21:33N 59°54' E 030°13'0 0.0
2016-Feb-05 20:33N 59°54' E 030°13'0 0.0
2016-Feb-05 19:33N 59°54' E 030°13'0 0.0
2016-Feb-05 18:33N 59°54' E 030°13'0 0.0
2016-Feb-05 17:33N 59°54' E 030°13'0 0.0
2016-Feb-05 16:33N 59°54' E 030°13'0 0.0
2016-Feb-05 15:33N 59°54' E 030°13'0 0.0
2016-Feb-05 14:33N 59°54' E 030°13'0 0.0
2016-Feb-05 13:33N 59°54' E 030°13'0 0.0
2016-Feb-05 12:30N 59°54' E 030°13'0 0.0
2016-Feb-05 11:33N 59°54' E 030°13'0 0.0
2016-Feb-05 10:33N 59°54' E 030°13'0 0.0
2016-Feb-05 09:33N 59°54' E 030°13'0 0.0
2016-Feb-05 08:30N 59°54' E 030°13'0 0.0
2016-Feb-05 07:33N 59°54' E 030°13'0 0.0
2016-Feb-05 06:30N 59°54' E 030°13'0 0.0
2016-Feb-05 05:33N 59°54' E 030°13'0 0.0
2016-Feb-05 04:33N 59°54' E 030°13'0 0.0
2016-Feb-05 03:33N 59°54' E 030°13'2 1.5
2016-Feb-05 02:33N 59°53' E 030°11'10 9.7
2016-Feb-05 01:33N 59°57' E 029°53'34 2.6
2016-Feb-04 12:33N 60°02' E 028°45'1211.6
2016-Feb-04 11:33N 60°04' E 028°23'1211.6
2016-Feb-04 10:33N 60°09' E 028°01'1110.9
2016-Feb-04 09:33N 60°09' E 027°39'2211.1
2016-Feb-04 07:33N 59°58' E 027°00'1110.9
2016-Feb-04 06:33N 59°59' E 026°39'10011.1
2016-Feb-03 21:33N 59°34' E 023°27'183 8.0
2016-Feb-02 22:33N 59°23' E 017°27'  
Track history (hours):
 
Tides and Currents Weather Stations Pressure Air Temp Water Temp Dewpoint Dewpoint Depression Visibility Wind Speed Wind Dir Waves Ship Positions

Pernille

Last reported at 2016-Feb-08 05:31 UTC. Time now 2016-Feb-08 21:14 UTC.
Position N 60°01' E 026°34'.

Length 82 m; draft 5.3 m.

Type: Cargo ship. MMSI: 212662000.

Date/timePositionNaut miles runAvg speedWind from/ knotsBaromVisibWave heightAir tempDewpointWater temp
2016-Feb-08 05:31N 60°01' E 026°34'3310.0
2016-Feb-08 02:12N 60°10' E 027°38'1610.0
2016-Feb-08 00:34N 60°09' E 028°11'1110.6
2016-Feb-07 23:33N 60°04' E 028°30'48 9.6
2016-Feb-07 18:33N 59°55' E 030°04'5 5.0
2016-Feb-07 17:34N 59°54' E 030°13'0 0.1
2016-Feb-07 16:33N 59°54' E 030°13'0 0.0
2016-Feb-07 15:33N 59°54' E 030°13'0 0.0
2016-Feb-07 14:33N 59°54' E 030°13'0 0.0
2016-Feb-07 13:33N 59°54' E 030°13'0 0.0
2016-Feb-07 12:33N 59°54' E 030°13'0 0.0
2016-Feb-07 11:33N 59°54' E 030°13'0 0.0
2016-Feb-07 10:33N 59°54' E 030°13'0 0.0
2016-Feb-07 09:33N 59°54' E 030°13'0 0.0
2016-Feb-07 08:33N 59°54' E 030°13'0 0.0
2016-Feb-07 07:33N 59°54' E 030°13'0 0.0
2016-Feb-07 06:33N 59°54' E 030°13'0 0.0
2016-Feb-07 05:33N 59°54' E 030°13'0 0.0
2016-Feb-07 04:33N 59°54' E 030°13'0 0.0
2016-Feb-07 03:33N 59°54' E 030°13'0 0.0
2016-Feb-07 02:33N 59°54' E 030°13'0 0.0
2016-Feb-07 01:33N 59°54' E 030°13'0 0.0
2016-Feb-07 00:33N 59°54' E 030°13'0 0.0
2016-Feb-06 23:33N 59°54' E 030°13'0 0.0
2016-Feb-06 22:33N 59°54' E 030°13'0 0.0
2016-Feb-06 21:33N 59°54' E 030°13'0 0.0
2016-Feb-06 20:33N 59°54' E 030°13'0 0.0
2016-Feb-06 19:33N 59°54' E 030°13'0 0.0
2016-Feb-06 18:33N 59°54' E 030°13'0 0.0
2016-Feb-06 17:33N 59°54' E 030°13'0 0.0
2016-Feb-06 16:33N 59°54' E 030°13'0 0.0
2016-Feb-06 15:33N 59°54' E 030°13'0 0.0
2016-Feb-06 14:33N 59°54' E 030°13'0 0.0
2016-Feb-06 13:33N 59°54' E 030°13'0 0.0
2016-Feb-06 12:33N 59°54' E 030°13'0 0.0
2016-Feb-06 11:33N 59°54' E 030°13'0 0.0
2016-Feb-06 10:33N 59°54' E 030°13'0 0.0
2016-Feb-06 09:33N 59°54' E 030°13'0 0.0
2016-Feb-06 08:33N 59°54' E 030°13'0 0.0
2016-Feb-06 07:33N 59°54' E 030°13'0 0.0
2016-Feb-06 06:33N 59°54' E 030°13'0 0.0
2016-Feb-06 05:33N 59°54' E 030°13'0 0.0
2016-Feb-06 04:33N 59°54' E 030°13'0 0.0
2016-Feb-06 03:33N 59°54' E 030°13'0 0.0
2016-Feb-06 02:33N 59°54' E 030°13'0 0.0
2016-Feb-06 01:33N 59°54' E 030°13'0 0.0
2016-Feb-06 00:33N 59°54' E 030°13'0 0.0
2016-Feb-05 23:33N 59°54' E 030°13'0 0.0
2016-Feb-05 22:33N 59°54' E 030°13'0 0.0
2016-Feb-05 21:33N 59°54' E 030°13'0 0.0
2016-Feb-05 20:33N 59°54' E 030°13'0 0.0
2016-Feb-05 19:33N 59°54' E 030°13'0 0.0
2016-Feb-05 18:33N 59°54' E 030°13'0 0.0
2016-Feb-05 17:33N 59°54' E 030°13'0 0.0
2016-Feb-05 16:33N 59°54' E 030°13'0 0.0
2016-Feb-05 15:33N 59°54' E 030°13'0 0.0
2016-Feb-05 14:33N 59°54' E 030°13'0 0.0
2016-Feb-05 13:33N 59°54' E 030°13'0 0.0
2016-Feb-05 12:30N 59°54' E 030°13'0 0.0
2016-Feb-05 11:33N 59°54' E 030°13'0 0.0
2016-Feb-05 10:33N 59°54' E 030°13'0 0.0
2016-Feb-05 09:33N 59°54' E 030°13'0 0.0
2016-Feb-05 08:30N 59°54' E 030°13'0 0.0
2016-Feb-05 07:33N 59°54' E 030°13'0 0.0
2016-Feb-05 06:30N 59°54' E 030°13'0 0.0
2016-Feb-05 05:33N 59°54' E 030°13'0 0.0
2016-Feb-05 04:33N 59°54' E 030°13'0 0.0
2016-Feb-05 03:33N 59°54' E 030°13'2 1.5
2016-Feb-05 02:33N 59°53' E 030°11'10 9.7
2016-Feb-05 01:33N 59°57' E 029°53'34 2.6
2016-Feb-04 12:33N 60°02' E 028°45'1211.6
2016-Feb-04 11:33N 60°04' E 028°23'1211.6
2016-Feb-04 10:33N 60°09' E 028°01'1110.9
2016-Feb-04 09:33N 60°09' E 027°39'2211.1
2016-Feb-04 07:33N 59°58' E 027°00'1110.9
2016-Feb-04 06:33N 59°59' E 026°39'10011.1
2016-Feb-03 21:33N 59°34' E 023°27'183 8.0
2016-Feb-02 22:33N 59°23' E 017°27'  

Dump ship's entire track history